• Join FlightAware (Why Join?)
  • Login
  • US Flag 
11:56AM EDT


 

Airport Tracker/Info


-or-


 

Live Flight TrackerFlight Track Log ✈ AWE1474 ✈ 28-Apr-2012 ✈ KMCO - KDCA

Flight Track Log - Related Links

Times and Time Zones

All times are in EDT time to prevent confusion due to time zone crossing. See the AWE1474 flight status page for this flight to view local times or setup timezone preferences in your user account.

Time Position Orientation Groundspeed Altitude Reporting Facility
EDT Latitude Longitude Course Direction KTS MPH feet Rate Location/Type
12:06PM 28.4581 -81.3081 167° South  Level FlightAware Approximate
12:07PM 28.3667 -81.2833 150° Southeast 201 231 1,900  Level Orlando TRACON
12:08PM 28.3167 -81.2500 106° East 223 257 5,700 2,760 Climbing Orlando TRACON
12:09PM 28.3000 -81.1833 North 272 313 7,700 2,100 Climbing Orlando TRACON
12:11PM 28.4933 -81.1800 345° North 291 335 13,200 2,340 Climbing Jacksonville Center
12:12PM 28.5958 -81.2114 342° North 344 396 15,900 2,400 Climbing Jacksonville Center
12:13PM 28.7008 -81.2500 343° North 367 422 18,000 2,040 Climbing Jacksonville Center
12:14PM 28.8097 -81.2883 343° North 387 445 20,100 1,860 Climbing Jacksonville Center
12:15PM 28.9250 -81.3292 343° North 406 467 21,800 1,800 Climbing Jacksonville Center
12:16PM 29.0425 -81.3703 348° North 430 495 23,700 1,680 Climbing Jacksonville Center
12:17PM 29.1658 -81.3992 355° North 436 502 25,200 1,440 Climbing Jacksonville Center
12:18PM 29.2933 -81.4117 355° North 448 516 26,600 1,500 Climbing Jacksonville Center
12:19PM 29.4208 -81.4239 355° North 460 529 28,300 1,680 Climbing Jacksonville Center
12:20PM 29.5483 -81.4364 355° North 460 529 30,000 1,500 Climbing Jacksonville Center
12:21PM 29.6781 -81.4489 355° North 465 535 31,400 1,440 Climbing Jacksonville Center
12:22PM 29.8033 -81.4611 356° North 460 529 32,900 780 Climbing Jacksonville Center
12:23PM 29.9286 -81.4714 357° North 450 518 33,000  Climbing Jacksonville Center
12:24PM 30.0519 -81.4792 North 444 511 33,000  Level Jacksonville Center
12:25PM 30.1772 -81.4750 North 444 511 33,000  Level Jacksonville Center
12:26PM 30.3025 -81.4683 North 444 511 33,000  Level Jacksonville Center
12:27PM 30.4278 -81.4664 North 444 511 33,000  Level Jacksonville Center
12:28PM 30.5425 -81.4597 North 444 511 33,000  Level Jacksonville Center
12:29PM 30.6678 -81.4556 North 444 511 33,000  Level Jacksonville Center
12:30PM 30.7908 -81.4514 North 444 511 33,000  Level Jacksonville Center
12:31PM 30.9161 -81.4469 North 444 511 33,000  Level Jacksonville Center
12:32PM 31.0411 -81.4353 22° Northeast 444 511 33,000  Level Jacksonville Center
12:33PM 31.1575 -81.3800 31° Northeast 444 511 33,000  Level Jacksonville Center
12:34PM 31.2650 -81.3031 29° Northeast 444 511 33,000  Level Jacksonville Center
12:35PM 31.3747 -81.2306 29° Northeast 439 505 33,000  Level Jacksonville Center
12:36PM 31.4989 -81.1503 30° Northeast 453 521 33,000  Level Jacksonville Center
12:37PM 31.5983 -81.0828 29° Northeast 458 527 33,000  Level Jacksonville Center
12:38PM 31.7222 -81.0022 29° Northeast 458 527 33,000  Level Jacksonville Center
12:39PM 31.8361 -80.9289 30° Northeast 458 527 33,000  Level Jacksonville Center
12:40PM 31.9394 -80.8581 29° Northeast 458 527 33,000  Level Jacksonville Center
12:41PM 32.0633 -80.7769 30° Northeast 458 527 33,000  Level Jacksonville Center
12:42PM 32.1789 -80.6983 30° Northeast 464 534 33,000  Level Jacksonville Center
12:43PM 32.2922 -80.6217 30° Northeast 464 534 33,000  Level Jacksonville Center
12:44PM 32.4058 -80.5453 29° Northeast 459 528 33,000  Level Jacksonville Center
12:45PM 32.5211 -80.4683 30° Northeast 465 535 33,000  Level Jacksonville Center
12:47PM 32.7436 -80.3167 30° Northeast 458 527 33,000  Level Jacksonville Center
12:48PM 32.8569 -80.2392 29° Northeast 458 527 33,000  Level Jacksonville Center
12:49PM 32.9742 -80.1614 31° Northeast 458 527 33,000  Level Jacksonville Center
12:50PM 33.0872 -80.0811 29° Northeast 466 536 33,000  Level Jacksonville Center
12:51PM 33.1900 -80.0133 30° Northeast 476 548 33,000  Level Jacksonville Center
12:52PM 33.3031 -79.9350 30° Northeast 470 541 33,000  Level Jacksonville Center
12:53PM 33.4139 -79.8592 30° Northeast 465 535 33,000  Level Jacksonville Center
12:54PM 33.5289 -79.7806 30° Northeast 465 535 33,000  Level Jacksonville Center
12:55PM 33.6417 -79.7019 30° Northeast 465 535 33,000  Level Jacksonville Center
12:56PM 33.7544 -79.6228 30° Northeast 465 535 33,000  Level Jacksonville Center
12:57PM 33.8669 -79.5436 30° Northeast 460 529 33,000  Level Jacksonville Center
12:58PM 33.9797 -79.4642 29° Northeast 460 529 33,000  Level Jacksonville Center
01:00PM 34.1544 -79.3486 32° Northeast 448 516 33,000  Level Washington Center
01:01PM 34.2658 -79.2633 25° Northeast 460 529 33,000  Level Washington Center
01:02PM 34.3931 -79.1908 26° Northeast 460 529 33,000  Level Washington Center
01:03PM 34.5078 -79.1228 25° Northeast 460 529 33,000  Level Washington Center
01:04PM 34.6267 -79.0547 25° Northeast 455 524 33,000  Level Washington Center
01:05PM 34.7433 -78.9889 26° Northeast 455 524 33,000  Level Washington Center
01:06PM 34.8600 -78.9206 26° Northeast 455 524 33,000  Level Washington Center
01:07PM 34.9767 -78.8517 25° Northeast 461 531 33,000  Level Washington Center
01:08PM 35.0953 -78.7828 26° Northeast 461 531 33,000  Level Washington Center
01:09PM 35.2119 -78.7139 26° Northeast 461 531 33,000  Level Washington Center
01:10PM 35.3264 -78.6469 25° Northeast 461 531 33,000  Level Washington Center
01:11PM 35.4364 -78.5850 26° Northeast 469 540 33,000  Level Washington Center
01:12PM 35.5614 -78.5103 26° Northeast 462 532 33,000  Level Washington Center
01:13PM 35.6778 -78.4406 37° Northeast 457 526 33,000  Level Washington Center
01:14PM 35.7781 -78.3469 42° Northeast 450 518 33,000 -180 Level Washington Center
01:15PM 35.8722 -78.2425 42° Northeast 450 518 32,700 -720 Descending Washington Center
01:16PM 35.9664 -78.1378 43° Northeast 450 518 31,700 -1,080 Descending Washington Center
01:17PM 36.0603 -78.0303 43° Northeast 450 518 30,600 -1,620 Descending Washington Center
01:18PM 36.1458 -77.9328 42° Northeast 465 535 28,500 -1,800 Descending Washington Center
01:19PM 36.2439 -77.8222 32° Northeast 470 541 27,000 -780 Descending Washington Center
01:20PM 36.3539 -77.7353 23° Northeast 465 535 27,000  Level Washington Center
01:21PM 36.4656 -77.6761 16° North 437 503 27,000  Level Washington Center
01:22PM 36.5872 -77.6328 14° North 442 509 27,000  Level Washington Center
01:23PM 36.7131 -77.5922 16° North 448 516 27,000  Level Washington Center
01:24PM 36.8350 -77.5486 15° North 453 521 27,000  Level Washington Center
01:25PM 36.9567 -77.5075 15° North 453 521 27,000  Level Washington Center
01:26PM 37.0822 -77.4664 16° North 458 527 27,000  Level Washington Center
01:27PM 37.2061 -77.4225 14° North 458 527 27,000  Level Washington Center
01:28PM 37.3278 -77.3836 16° North 453 521 27,000  Level Washington Center
01:29PM 37.4556 -77.3369 12° North 458 527 27,000 -60 Level Washington Center
01:30PM 37.5917 -77.3006 10° North 458 527 26,900 -1,560 Descending Washington Center
01:31PM 37.7150 -77.2744 North 453 521 24,000 -2,520 Descending Washington Center
01:32PM 37.8322 -77.2508 North 438 504 22,000 -1,020 Descending Washington Center
01:33PM 37.9431 -77.2294 316° Northwest 416 479 22,000 -540 Level Washington Center
01:34PM 37.9944 -77.2914 196° South 271 312 21,000 -600 Descending Washington Center
01:35PM 37.9147 -77.3211 110° East 140 161 20,900 -1,200 Descending Washington Center
01:36PM 37.8808 -77.2044 27° Northeast 174 200 18,700 -2,220 Descending Washington Center
01:37PM 37.9586 -77.1536 359° North 185 213 16,600 -2,820 Descending Washington Center
01:38PM 38.0525 -77.1556 360° North 237 273 13,000 -2,880 Descending Washington Center
01:39PM 38.1525 -77.1550 360° North 301 346 10,800 -1,560 Descending Washington Center
01:40PM 38.2444 -77.1542 16° North 320 368 10,000 -480 Descending Washington Center
01:41PM 38.3408 -77.1192 48° Northeast 317 365 9,900 -480 Descending Washington Center
01:42PM 38.3981 -77.0383 11° North 305 351 9,100 -1,200 Descending Washington Center
01:43PM 38.4669 -77.0208 357° North 272 313 7,600 -1,320 Descending Washington Center
01:44PM 38.5336 -77.0250 338° Northwest 243 280 6,500 -1,200 Descending Washington Center
01:45PM 38.5856 -77.0525 North 204 235 5,300 -1,260 Descending Washington Center
01:47PM 38.6833 -77.0333 360° North 176 203 2,700 -1,080 Descending Potomac TRACON
01:48PM 38.7333 -77.0333 360° North 162 186 2,100 -600 Descending Potomac TRACON
01:49PM 38.7667 -77.0333 360° North 155 178 1,600 -540 Descending Potomac TRACON